Station Historical Data
 
Daily Summary for March 20, 2019 Units:  Metric    English   Both
« Previous Day
Next Day »
Daily Weekly Monthly Yearly Custom
  Current: High: Low: Average:
Temperature: 8.0 °C 10.9 °C 7.8 °C 9.1 °C
Dew Point: 6.3 °C 6.5 °C 5.3 °C 5.8 °C
Humidity: 89% 89% 70% 80%
Wind Speed: 4.8km/h 14.5km/h 1.6km/h 6.3km/h
Wind Gust: 14.5km/h 48.3km/h - -
WindWNW - - West
Pressure: 1026.2 hPa 1026.4 hPa 1023.5 hPa -
Precipitation: 7.6 mm      
Historical Graphs
 
 
Tabular Data for March 20, 2019
Time Temperature Dew Point Pressure Wind Wind Speed Wind Gust Humidity Rainfall Rate (Hourly) solar Conditions
00:00 10.9 °C 5.8 °C 1024.8 hPa NNW 1.6 km/h 8.0 km/h 71% 0.0 mm 0.00 W/m2 CLR
00:05 10.9 °C 5.6 °C 1024.8 hPa NNW 1.6 km/h 8.0 km/h 70% 0.0 mm 0.00 W/m2 CLR
00:10 10.9 °C 5.6 °C 1024.8 hPa NNW 3.2 km/h 9.7 km/h 70% 0.0 mm 0.00 W/m2 CLR
00:15 10.8 °C 5.6 °C 1024.8 hPa North 3.2 km/h 6.4 km/h 70% 0.0 mm 0.00 W/m2 CLR
00:20 10.8 °C 5.6 °C 1024.7 hPa NNW 1.6 km/h 8.0 km/h 70% 0.0 mm 0.00 W/m2 CLR
00:25 10.7 °C 5.5 °C 1024.7 hPa NNW 3.2 km/h 12.9 km/h 70% 0.0 mm 0.00 W/m2 CLR
00:35 10.7 °C 5.4 °C 1024.8 hPa NW 3.2 km/h 4.8 km/h 70% 0.0 mm 0.00 W/m2 CLR
00:40 10.6 °C 5.6 °C 1024.7 hPa NNW 1.6 km/h 9.7 km/h 71% 0.0 mm 0.00 W/m2 CLR
00:45 10.6 °C 5.6 °C 1024.7 hPa NNW 1.6 km/h 8.0 km/h 71% 0.0 mm 0.00 W/m2 CLR
00:55 10.6 °C 5.5 °C 1024.6 hPa NW 1.6 km/h 8.0 km/h 71% 0.0 mm 0.00 W/m2 CLR
01:05 10.6 °C 5.5 °C 1024.6 hPa NNW 3.2 km/h 8.0 km/h 71% 0.0 mm 0.00 W/m2 CLR
01:15 10.5 °C 5.4 °C 1024.5 hPa NNW 3.2 km/h 8.0 km/h 71% 0.0 mm 0.00 W/m2 CLR
01:20 10.5 °C 5.4 °C 1024.5 hPa NNW 3.2 km/h 8.0 km/h 71% 0.0 mm 0.00 W/m2 CLR
01:25 10.5 °C 5.4 °C 1024.6 hPa NNW 3.2 km/h 6.4 km/h 71% 0.0 mm 0.00 W/m2 CLR
01:35 10.4 °C 5.4 °C 1024.6 hPa NNW 3.2 km/h 8.0 km/h 71% 0.0 mm 0.00 W/m2 CLR
01:45 10.4 °C 5.3 °C 1024.6 hPa NW 3.2 km/h 11.3 km/h 71% 0.0 mm 0.00 W/m2 CLR
01:50 10.4 °C 5.3 °C 1024.5 hPa NNW 3.2 km/h 14.5 km/h 71% 0.0 mm 0.00 W/m2 CLR
01:55 10.4 °C 5.3 °C 1024.6 hPa NW 3.2 km/h 12.9 km/h 71% 0.0 mm 0.00 W/m2 CLR
02:05 10.4 °C 5.4 °C 1024.5 hPa WNW 4.8 km/h 11.3 km/h 71% 0.0 mm 0.00 W/m2 CLR
02:15 10.5 °C 5.4 °C 1024.6 hPa NW 3.2 km/h 8.0 km/h 71% 0.0 mm 0.00 W/m2 CLR
02:20 10.5 °C 5.7 °C 1024.6 hPa NNE 1.6 km/h 4.8 km/h 72% 0.0 mm 0.00 W/m2 CLR
02:25 10.5 °C 5.7 °C 1024.5 hPa North 4.8 km/h 19.3 km/h 72% 0.0 mm 0.00 W/m2 CLR
02:30 10.6 °C 5.7 °C 1024.5 hPa North 4.8 km/h 9.7 km/h 72% 0.0 mm 0.00 W/m2 CLR
02:35 10.6 °C 5.8 °C 1024.5 hPa NNE 4.8 km/h 9.7 km/h 72% 0.0 mm 0.00 W/m2 CLR
02:45 10.7 °C 5.8 °C 1024.3 hPa NNE 4.8 km/h 8.0 km/h 72% 0.0 mm 0.00 W/m2 CLR
02:50 10.6 °C 5.8 °C 1024.2 hPa NNE 1.6 km/h 4.8 km/h 72% 0.0 mm 0.00 W/m2 CLR
03:00 10.6 °C 5.7 °C 1024.1 hPa North 3.2 km/h 8.0 km/h 72% 0.0 mm 0.00 W/m2 CLR
03:05 10.6 °C 5.7 °C 1024.1 hPa NE 1.6 km/h 9.7 km/h 72% 0.0 mm 0.00 W/m2 CLR
03:15 10.6 °C 5.9 °C 1024.3 hPa NE 8.0 km/h 16.1 km/h 73% 0.0 mm 0.00 W/m2 CLR
03:25 9.8 °C 5.8 °C 1024.5 hPa NE 8.0 km/h 33.8 km/h 76% 0.8 mm 0.00 W/m2 RA
03:35 9.1 °C 5.9 °C 1024.5 hPa North 9.7 km/h 19.3 km/h 80% 0.5 mm 0.00 W/m2 RA
03:40 8.9 °C 5.8 °C 1024.4 hPa NNW 8.0 km/h 14.5 km/h 81% 0.5 mm 0.00 W/m2 RA
03:50 8.5 °C 5.8 °C 1023.9 hPa WNW 11.3 km/h 19.3 km/h 83% 0.3 mm 0.00 W/m2 RA
04:00 8.1 °C 5.7 °C 1023.5 hPa NW 14.5 km/h 25.7 km/h 85% 0.0 mm 0.00 W/m2 RA
04:05 8.0 °C 5.6 °C 1023.7 hPa NW 4.8 km/h 16.1 km/h 85% 0.3 mm 0.00 W/m2 RA
04:15 8.0 °C 5.8 °C 1023.7 hPa WNW 1.6 km/h 9.7 km/h 86% 0.0 mm 0.00 W/m2
04:25 7.9 °C 5.7 °C 1023.8 hPa NW 3.2 km/h 9.7 km/h 86% 0.0 mm 0.00 W/m2
04:30 8.0 °C 5.8 °C 1023.8 hPa NNW 4.8 km/h 12.9 km/h 86% 0.0 mm 0.00 W/m2
04:35 8.1 °C 5.8 °C 1023.8 hPa North 3.2 km/h 8.0 km/h 86% 0.0 mm 0.00 W/m2
04:40 8.0 °C 5.8 °C 1023.8 hPa WNW 3.2 km/h 9.7 km/h 86% 0.0 mm 0.00 W/m2
04:45 8.1 °C 5.8 °C 1023.8 hPa NW 3.2 km/h 12.9 km/h 86% 0.0 mm 0.00 W/m2
04:55 8.1 °C 5.7 °C 1023.9 hPa WNW 3.2 km/h 11.3 km/h 85% 0.0 mm 0.00 W/m2
05:00 8.1 °C 5.7 °C 1023.8 hPa WNW 4.8 km/h 19.3 km/h 85% 0.0 mm 0.00 W/m2
05:05 8.1 °C 5.7 °C 1023.8 hPa NW 4.8 km/h 12.9 km/h 85% 0.0 mm 0.00 W/m2 CLR
05:15 8.3 °C 5.9 °C 1023.9 hPa NNW 4.8 km/h 19.3 km/h 85% 0.0 mm 0.00 W/m2 CLR
05:25 8.5 °C 6.3 °C 1024.0 hPa WNW 3.2 km/h 11.3 km/h 86% 0.0 mm 0.00 W/m2 CLR
05:35 8.6 °C 6.4 °C 1024.1 hPa NNE 4.8 km/h 19.3 km/h 86% 0.0 mm 0.00 W/m2 CLR
05:40 8.7 °C 6.4 °C 1024.1 hPa NW 12.9 km/h 20.9 km/h 86% 0.0 mm 0.00 W/m2 CLR
05:45 8.7 °C 6.4 °C 1024.1 hPa NW 4.8 km/h 27.4 km/h 86% 0.0 mm 0.00 W/m2 CLR
05:55 8.7 °C 6.5 °C 1024.0 hPa WNW 8.0 km/h 19.3 km/h 86% 0.0 mm 0.00 W/m2 CLR
06:00 8.7 °C 6.4 °C 1024.0 hPa WNW 8.0 km/h 19.3 km/h 86% 0.0 mm 0.00 W/m2 CLR
06:05 8.7 °C 6.5 °C 1024.0 hPa NW 11.3 km/h 25.7 km/h 86% 0.0 mm 0.00 W/m2 CLR
06:10 8.7 °C 6.3 °C 1024.1 hPa NW 4.8 km/h 16.1 km/h 85% 0.0 mm 0.00 W/m2 CLR
06:15 8.7 °C 6.3 °C 1024.1 hPa NW 8.0 km/h 11.3 km/h 85% 0.0 mm 0.00 W/m2 CLR
06:25 8.8 °C 6.2 °C 1024.2 hPa NW 9.7 km/h 20.9 km/h 84% 0.0 mm 0.00 W/m2 CLR
06:30 8.8 °C 6.2 °C 1024.2 hPa NW 3.2 km/h 16.1 km/h 84% 0.0 mm 0.00 W/m2 CLR
06:35 8.8 °C 6.1 °C 1024.2 hPa NNW 3.2 km/h 9.7 km/h 83% 0.0 mm 0.00 W/m2 CLR
06:40 8.8 °C 6.1 °C 1024.2 hPa NE 3.2 km/h 16.1 km/h 83% 0.0 mm 0.00 W/m2 CLR
06:45 8.8 °C 6.1 °C 1024.3 hPa North 4.8 km/h 16.1 km/h 83% 0.0 mm 0.00 W/m2 CLR
06:50 8.8 °C 5.9 °C 1024.3 hPa North 4.8 km/h 19.3 km/h 82% 0.0 mm 0.00 W/m2 CLR
07:00 8.9 °C 5.8 °C 1024.4 hPa NNE 9.7 km/h 16.1 km/h 81% 0.0 mm 0.00 W/m2 OVC
07:05 8.9 °C 5.8 °C 1024.4 hPa North 9.7 km/h 22.5 km/h 81% 0.0 mm 0.00 W/m2 OVC
07:10 8.9 °C 5.7 °C 1024.5 hPa NNW 8.0 km/h 19.3 km/h 80% 0.0 mm 0.00 W/m2 OVC
07:15 9.0 °C 5.7 °C 1024.7 hPa North 11.3 km/h 19.3 km/h 80% 0.0 mm 0.00 W/m2 OVC
07:25 9.1 °C 5.9 °C 1025.1 hPa North 14.5 km/h 27.4 km/h 81% 0.5 mm 6.00 W/m2 RA
07:30 8.8 °C 5.9 °C 1025.1 hPa North 11.3 km/h 25.7 km/h 82% 0.3 mm 6.00 W/m2 RA
07:35 8.7 °C 5.9 °C 1025.3 hPa North 11.3 km/h 27.4 km/h 83% 0.5 mm 6.00 W/m2 RA
07:45 8.3 °C 5.9 °C 1025.1 hPa North 11.3 km/h 37.0 km/h 85% 0.5 mm 10.80 W/m2 RA
07:55 8.1 °C 5.9 °C 1025.1 hPa NW 8.0 km/h 20.9 km/h 86% 0.3 mm 52.80 W/m2 RA
08:00 8.1 °C 5.8 °C 1025.1 hPa NW 8.0 km/h 22.5 km/h 86% 0.0 mm 84.00 W/m2 RA
08:05 8.0 °C 6.0 °C 1025.1 hPa WNW 8.0 km/h 16.1 km/h 87% 0.0 mm 67.20 W/m2 SCT
08:15 8.1 °C 6.0 °C 1025.0 hPa NW 12.9 km/h 25.7 km/h 87% 0.0 mm 61.20 W/m2 BKN
08:20 8.2 °C 6.1 °C 1025.1 hPa West 9.7 km/h 20.9 km/h 87% 0.0 mm 63.60 W/m2 BKN
08:25 8.2 °C 6.0 °C 1025.5 hPa WNW 8.0 km/h 19.3 km/h 86% 0.0 mm 21.60 W/m2 OVC
08:35 8.3 °C 6.1 °C 1025.5 hPa NNW 12.9 km/h 32.2 km/h 86% 0.3 mm 67.20 W/m2 RA
08:40 8.3 °C 6.1 °C 1025.5 hPa NNW 14.5 km/h 48.3 km/h 86% 0.3 mm 46.80 W/m2 RA
08:45 8.3 °C 6.1 °C 1025.6 hPa NW 12.9 km/h 33.8 km/h 86% 0.5 mm 72.00 W/m2 RA
08:55 8.1 °C 5.9 °C 1026.1 hPa NW 12.9 km/h 27.4 km/h 86% 0.0 mm 36.00 W/m2 RA
09:00 8.1 °C 5.9 °C 1026.2 hPa NNW 14.5 km/h 27.4 km/h 86% 0.5 mm 36.00 W/m2 RA
09:05 8.1 °C 6.0 °C 1026.3 hPa NNW 11.3 km/h 25.7 km/h 87% 0.3 mm 42.00 W/m2 RA
09:10 8.1 °C 6.0 °C 1026.3 hPa North 8.0 km/h 24.1 km/h 87% 0.3 mm 38.40 W/m2 RA
09:15 7.9 °C 5.9 °C 1026.4 hPa NNW 14.5 km/h 24.1 km/h 87% 0.3 mm 58.80 W/m2 RA
09:25 7.9 °C 6.1 °C 1026.2 hPa NNW 8.0 km/h 16.1 km/h 88% 0.0 mm 86.40 W/m2 RA
09:30 7.9 °C 6.1 °C 1026.3 hPa NW 4.8 km/h 14.5 km/h 88% 0.3 mm 78.00 W/m2 RA
09:40 7.8 °C 5.9 °C 1026.2 hPa NW 8.0 km/h 16.1 km/h 88% 0.0 mm 133.20 W/m2 OVC
09:45 7.8 °C 5.9 °C 1026.2 hPa NW 4.8 km/h 12.9 km/h 88% 0.0 mm 231.60 W/m2 SCT
09:50 7.8 °C 5.9 °C 1026.2 hPa WNW 3.2 km/h 12.9 km/h 88% 0.0 mm 250.80 W/m2 SCT
09:55 8.0 °C 6.3 °C 1026.2 hPa WNW 4.8 km/h 14.5 km/h 89% 0.0 mm 253.20 W/m2 SCT
Juneau County Weather
Compliments of Weather Underground - 12.25 mb

past weather